Time;durP1;ratioP1;P1;durP2;ratioP2;P2;SDS_P1;SDS_P2;PMS_P1;PMS_P2;Temp;Humidity;BMP_temperature;BMP_pressure;BME280_temperature;BME280_humidity;BME280_pressure;Samples;Min_cycle;Max_cycle;Signal;HPM_P1;HPM_P2
2021/07/31 00:04:08;;;;;;;8.15;3.33;;;;;;;19.38;59.79;99798.80;4897769;59;21130;-76
2021/07/31 00:09:13;;;;;;;6.45;3.55;;;;;;;19.37;59.74;99790.44;4942107;59;21203;-76
2021/07/31 00:14:19;;;;;;;8.25;4.22;;;;;;;19.22;59.92;99787.84;4814184;60;21607;-76
2021/07/31 00:19:25;;;;;;;7.72;3.47;;;;;;;19.22;60.39;99789.69;4779330;60;21199;-76
2021/07/31 00:24:31;;;;;;;8.75;4.10;;;;;;;19.24;60.66;99783.62;4720623;61;22210;-76
2021/07/31 00:29:36;;;;;;;8.78;3.90;;;;;;;19.25;60.72;99767.83;4822290;60;21235;-76
2021/07/31 00:34:42;;;;;;;7.60;3.12;;;;;;;19.21;60.69;99774.11;4799783;59;21130;-76
2021/07/31 00:39:48;;;;;;;8.45;3.15;;;;;;;19.17;60.98;99767.47;4807430;60;21145;-76
2021/07/31 00:44:53;;;;;;;7.97;3.40;;;;;;;19.19;61.07;99757.89;4714399;61;21215;-76
2021/07/31 00:50:00;;;;;;;10.70;3.25;;;;;;;19.08;61.05;99751.21;4816922;60;21242;-76
2021/07/31 00:55:18;;;;;;;4.33;3.40;;;;;;;19.08;61.56;99746.36;4757265;61;21196;-76
2021/07/31 01:00:20;;;;;;;15.08;4.00;;;;;;;19.14;61.77;99753.61;4820812;60;21173;-76
2021/07/31 01:05:27;;;;;;;6.78;4.05;;;;;;;19.11;61.69;99746.78;4792135;59;21203;-76
2021/07/31 01:10:34;;;;;;;12.03;4.25;;;;;;;19.08;61.74;99738.32;4786831;59;21185;-76
2021/07/31 01:16:01;;;;;;;6.72;3.70;;;;;;;19.05;61.87;99744.89;4733421;61;21281;-76
2021/07/31 01:21:08;;;;;;;8.60;3.90;;;;;;;18.96;62.04;99746.86;4728677;61;21679;-76
2021/07/31 01:26:13;;;;;;;8.15;3.98;;;;;;;18.89;62.15;99745.15;4824683;61;21189;-76
2021/07/31 01:31:20;;;;;;;4.42;3.50;;;;;;;18.85;62.37;99754.58;4763289;61;21221;-76
2021/07/31 01:36:26;;;;;;;13.88;4.35;;;;;;;18.85;62.46;99758.09;4752854;60;21198;-77
2021/07/31 01:41:33;;;;;;;13.95;3.90;;;;;;;18.83;62.49;99756.11;4780646;61;22198;-77
2021/07/31 01:46:39;;;;;;;10.05;3.60;;;;;;;18.83;62.57;99743.22;4706264;62;21146;-76
2021/07/31 01:51:45;;;;;;;14.35;4.37;;;;;;;18.81;62.52;99739.39;4744541;60;21636;-76
2021/07/31 01:56:51;;;;;;;15.70;4.40;;;;;;;18.77;62.60;99731.44;4747765;61;22104;-76
2021/07/31 02:01:59;;;;;;;5.87;3.75;;;;;;;18.69;62.95;99726.19;4790971;60;21243;-77
2021/07/31 02:07:06;;;;;;;10.08;4.05;;;;;;;18.72;63.15;99727.16;4831928;60;21215;-76
2021/07/31 02:12:13;;;;;;;9.25;4.15;;;;;;;18.73;63.16;99723.97;4786803;60;21206;-75
2021/07/31 02:17:19;;;;;;;5.10;4.20;;;;;;;18.73;63.14;99718.09;4790892;61;21522;-75
2021/07/31 02:22:25;;;;;;;6.85;3.42;;;;;;;18.56;62.78;99717.98;4772186;60;21141;-75
2021/07/31 02:27:50;;;;;;;18.80;3.83;;;;;;;18.31;63.11;99720.19;4773393;61;21213;-75
2021/07/31 02:32:56;;;;;;;9.73;4.37;;;;;;;18.19;63.79;99717.66;4823951;60;21223;-75
2021/07/31 02:38:05;;;;;;;11.22;3.92;;;;;;;18.15;64.16;99713.21;4819906;60;21188;-75
2021/07/31 02:43:11;;;;;;;10.43;4.00;;;;;;;18.09;64.22;99708.59;4848283;60;21192;-75
2021/07/31 02:48:17;;;;;;;10.38;4.80;;;;;;;18.19;64.59;99717.66;4860575;60;21179;-75
2021/07/31 02:53:22;;;;;;;9.40;5.53;;;;;;;18.31;64.63;99714.01;4847223;60;21198;-75
2021/07/31 02:58:28;;;;;;;13.83;5.15;;;;;;;18.43;64.66;99718.67;4845478;60;21189;-74
2021/07/31 03:03:34;;;;;;;15.30;4.45;;;;;;;18.47;64.49;99711.94;4830596;60;21190;-75
2021/07/31 03:08:40;;;;;;;14.50;4.08;;;;;;;18.37;64.26;99707.38;4880969;60;21219;-75
2021/07/31 03:13:46;;;;;;;18.47;4.87;;;;;;;18.33;64.60;99711.98;4805189;60;21210;-75
2021/07/31 03:18:53;;;;;;;10.68;4.15;;;;;;;18.35;64.78;99708.06;4695488;60;21561;-74
2021/07/31 03:23:58;;;;;;;14.77;4.27;;;;;;;18.38;64.78;99714.39;4792308;60;21530;-74
2021/07/31 03:29:06;;;;;;;12.05;4.72;;;;;;;18.42;64.83;99705.48;4784961;60;21196;-74
2021/07/31 03:34:11;;;;;;;12.45;4.35;;;;;;;18.38;64.78;99695.65;4789672;60;21278;-75
2021/07/31 03:39:17;;;;;;;8.43;3.77;;;;;;;18.34;64.78;99689.52;4784532;60;21140;-75
2021/07/31 03:44:24;;;;;;;11.63;3.85;;;;;;;18.27;65.11;99681.42;4787884;60;21195;-75
2021/07/31 03:49:32;;;;;;;28.05;3.95;;;;;;;18.32;65.23;99685.72;4794735;60;21195;-75
2021/07/31 03:54:38;;;;;;;21.20;4.12;;;;;;;18.41;65.27;99673.86;4791709;60;21575;-74
2021/07/31 03:59:45;;;;;;;11.60;3.60;;;;;;;18.51;65.33;99686.92;4780392;60;21247;-74
2021/07/31 04:04:51;;;;;;;10.68;4.17;;;;;;;18.56;65.47;99681.33;4786315;60;21195;-74
2021/07/31 04:09:57;;;;;;;11.53;4.30;;;;;;;18.61;65.54;99688.32;4803216;60;21187;-75
2021/07/31 04:15:20;;;;;;;12.55;3.55;;;;;;;18.64;65.55;99688.96;4885114;59;21199;-74
2021/07/31 04:20:28;;;;;;;6.78;3.58;;;;;;;18.67;65.62;99688.05;4885054;59;21629;-75
2021/07/31 04:25:38;;;;;;;11.30;4.03;;;;;;;18.72;65.44;99689.65;4799625;60;22140;-75
2021/07/31 04:30:42;;;;;;;12.10;4.05;;;;;;;18.78;65.42;99682.70;4925379;59;21129;-75
2021/07/31 04:35:48;;;;;;;9.05;3.30;;;;;;;18.82;65.35;99673.24;4883728;59;21190;-75
2021/07/31 04:40:53;;;;;;;17.90;4.53;;;;;;;18.81;65.31;99669.73;4886098;59;21204;-74
2021/07/31 04:46:00;;;;;;;7.90;3.27;;;;;;;18.82;65.13;99678.09;4770137;61;21237;-75
2021/07/31 04:51:08;;;;;;;27.42;4.67;;;;;;;18.82;65.16;99679.43;4828617;60;21207;-75
2021/07/31 04:56:14;;;;;;;11.50;4.33;;;;;;;18.85;65.10;99672.86;4854733;59;21187;-75
2021/07/31 05:01:20;;;;;;;9.48;4.60;;;;;;;18.91;65.09;99680.14;4822703;59;22140;-75
2021/07/31 05:06:25;;;;;;;7.28;4.55;;;;;;;18.97;64.94;99673.98;4771989;60;21180;-75
2021/07/31 05:11:31;;;;;;;9.13;3.47;;;;;;;19.03;64.95;99668.38;4750012;61;21163;-75
2021/07/31 05:16:37;;;;;;;5.78;2.92;;;;;;;19.11;64.88;99672.24;4811217;60;21273;-75
2021/07/31 05:21:43;;;;;;;5.30;2.72;;;;;;;19.19;64.81;99666.75;4853189;60;21615;-74
2021/07/31 05:26:48;;;;;;;3.25;2.70;;;;;;;19.31;64.84;99666.52;4743027;61;21639;-75
2021/07/31 05:31:54;;;;;;;5.87;2.80;;;;;;;19.46;64.60;99661.05;4722809;61;21209;-75
2021/07/31 05:37:00;;;;;;;5.42;3.17;;;;;;;19.60;64.46;99655.59;4785389;60;21567;-75
2021/07/31 05:42:06;;;;;;;3.75;2.52;;;;;;;19.80;64.47;99666.94;4761316;61;21238;-75
2021/07/31 05:47:11;;;;;;;5.78;2.70;;;;;;;20.02;64.17;99659.91;4739467;61;22098;-75
2021/07/31 05:52:18;;;;;;;4.22;2.60;;;;;;;20.21;63.53;99658.83;4692656;62;21242;-74
2021/07/31 05:57:24;;;;;;;3.85;2.27;;;;;;;20.32;63.05;99655.55;4803694;60;21194;-76
2021/07/31 06:02:29;;;;;;;21.50;3.65;;;;;;;20.43;62.83;99657.70;4779346;60;22167;-76
2021/07/31 06:07:35;;;;;;;7.53;2.70;;;;;;;20.53;62.78;99662.14;4871812;59;21202;-76
2021/07/31 06:12:41;;;;;;;7.75;2.70;;;;;;;20.62;62.58;99658.22;4816551;59;21225;-76
2021/07/31 06:17:47;;;;;;;5.55;2.77;;;;;;;20.75;62.39;99656.61;4808114;60;21200;-76
2021/07/31 06:22:53;;;;;;;10.82;3.55;;;;;;;20.86;62.41;99649.27;4756156;61;21197;-76
2021/07/31 06:27:58;;;;;;;7.37;2.72;;;;;;;20.99;61.95;99651.95;4738778;61;21311;-76
2021/07/31 06:33:04;;;;;;;4.08;2.70;;;;;;;21.18;62.13;99648.42;4825546;60;21199;-76
2021/07/31 06:38:09;;;;;;;3.65;2.33;;;;;;;21.42;62.00;99644.27;4783187;60;21228;-74
2021/07/31 06:43:15;;;;;;;5.03;3.50;;;;;;;21.69;60.55;99636.97;4790638;60;21216;-74
2021/07/31 06:48:21;;;;;;;8.68;3.08;;;;;;;21.90;59.09;99639.34;4800467;60;21793;-74
2021/07/31 06:53:27;;;;;;;4.42;3.55;;;;;;;21.99;58.76;99635.42;4728787;61;21148;-74
2021/07/31 06:58:32;;;;;;;3.80;3.33;;;;;;;22.15;59.19;99632.76;4753373;61;21205;-73
2021/07/31 07:03:38;;;;;;;7.10;3.60;;;;;;;22.35;57.81;99635.31;4766511;60;21704;-73
2021/07/31 07:08:44;;;;;;;9.08;3.60;;;;;;;22.49;57.57;99639.58;4768092;61;21201;-74
2021/07/31 07:13:50;;;;;;;11.10;3.80;;;;;;;22.65;58.24;99638.22;4780986;61;21205;-73
2021/07/31 07:18:55;;;;;;;6.87;4.62;;;;;;;22.79;57.96;99637.93;4829631;59;21186;-73
2021/07/31 07:24:02;;;;;;;8.48;4.37;;;;;;;22.97;57.97;99652.52;4767261;59;21225;-73
2021/07/31 07:29:08;;;;;;;5.40;3.72;;;;;;;23.16;57.20;99654.22;4769986;61;21202;-73
2021/07/31 07:34:13;;;;;;;9.60;4.20;;;;;;;23.30;57.19;99661.14;4797351;60;21209;-73
2021/07/31 07:39:19;;;;;;;10.43;3.87;;;;;;;23.48;56.17;99667.92;4857256;60;21701;-74
2021/07/31 07:44:25;;;;;;;16.95;4.85;;;;;;;23.57;56.42;99670.34;4817174;60;21162;-73
2021/07/31 07:49:31;;;;;;;8.95;4.37;;;;;;;23.72;56.18;99667.58;4678471;61;21237;-73
2021/07/31 07:54:36;;;;;;;18.10;4.55;;;;;;;23.90;54.88;99666.75;4683507;62;21162;-75
2021/07/31 07:59:42;;;;;;;4.50;3.58;;;;;;;23.98;54.07;99662.94;4745845;60;22218;-75
2021/07/31 08:04:48;;;;;;;5.33;3.50;;;;;;;24.02;54.95;99667.63;4820476;60;21205;-74
2021/07/31 08:09:55;;;;;;;7.95;3.65;;;;;;;24.15;52.80;99655.30;4876169;58;21216;-74
2021/07/31 08:15:01;;;;;;;6.92;3.62;;;;;;;24.39;53.83;99660.84;4812805;60;21177;-74
2021/07/31 08:20:09;;;;;;;7.67;3.00;;;;;;;24.64;52.60;99652.04;4741484;60;21622;-75
2021/07/31 08:25:14;;;;;;;7.17;3.87;;;;;;;24.87;51.93;99643.98;4764095;61;21198;-75
2021/07/31 08:30:20;;;;;;;4.50;3.02;;;;;;;25.04;51.62;99650.09;4762742;61;21202;-75
2021/07/31 08:35:26;;;;;;;3.67;3.33;;;;;;;25.25;49.41;99658.97;4758121;60;21286;-74
2021/07/31 08:40:34;;;;;;;6.58;4.83;;;;;;;25.37;48.66;99658.96;4762405;61;22196;-75
2021/07/31 08:45:41;;;;;;;4.37;2.98;;;;;;;25.49;48.91;99669.28;4765310;61;21210;-75
2021/07/31 08:50:48;;;;;;;4.60;3.67;;;;;;;25.61;48.89;99662.48;4769808;61;21194;-74
2021/07/31 08:55:54;;;;;;;7.58;2.40;;;;;;;25.62;47.98;99662.81;4760906;61;21524;-75
2021/07/31 09:01:01;;;;;;;7.87;2.47;;;;;;;25.68;46.61;99668.62;4840207;59;21128;-74
2021/07/31 09:06:07;;;;;;;6.42;2.65;;;;;;;25.78;46.67;99671.56;4819909;59;21178;-74
2021/07/31 09:11:13;;;;;;;5.70;2.45;;;;;;;25.89;46.56;99662.58;4760813;60;21197;-74
2021/07/31 09:16:20;;;;;;;2.22;2.02;;;;;;;26.07;45.29;99667.01;4848437;60;21226;-74
2021/07/31 09:21:30;;;;;;;4.80;2.15;;;;;;;25.90;44.66;99662.34;4858390;59;21125;-73
2021/07/31 09:26:59;;;;;;;4.22;2.27;;;;;;;25.95;44.85;99672.47;4686334;62;21149;-75
2021/07/31 09:31:55;;;;;;;4.85;2.30;;;;;;;26.17;44.32;99671.27;4827103;60;21538;-75
2021/07/31 09:37:28;;;;;;;2.15;1.95;;;;;;;26.18;43.86;99676.98;4855805;59;21179;-74
2021/07/31 09:42:40;;;;;;;4.40;2.10;;;;;;;26.04;44.58;99672.38;4770699;61;21592;-75
2021/07/31 09:48:04;;;;;;;2.37;2.10;;;;;;;25.88;43.42;99661.75;4786677;60;22249;-75
2021/07/31 09:53:13;;;;;;;4.28;2.22;;;;;;;25.82;44.05;99680.84;4842536;60;21214;-75
2021/07/31 09:58:21;;;;;;;8.50;2.00;;;;;;;26.14;43.82;99675.28;4776679;60;21130;-75
2021/07/31 10:03:27;;;;;;;3.90;1.82;;;;;;;26.37;43.25;99665.45;4933862;57;21142;-75
2021/07/31 10:08:36;;;;;;;1.85;1.75;;;;;;;26.48;43.64;99666.75;5033691;58;21218;-75
2021/07/31 10:13:43;;;;;;;4.22;1.65;;;;;;;26.47;42.12;99667.81;4919765;58;21216;-75
2021/07/31 10:19:04;;;;;;;3.47;1.45;;;;;;;26.75;40.35;99671.02;5035090;57;21658;-75
2021/07/31 10:24:11;;;;;;;4.10;2.10;;;;;;;26.90;39.34;99665.02;4990262;58;21632;-75
2021/07/31 10:29:40;;;;;;;3.30;1.65;;;;;;;27.09;38.39;99665.10;5063510;57;21157;-75
2021/07/31 10:34:57;;;;;;;4.78;1.60;;;;;;;27.23;37.39;99666.94;4976619;58;21592;-75
2021/07/31 10:40:13;;;;;;;2.62;1.50;;;;;;;27.00;38.33;99667.95;4941306;58;21107;-73
2021/07/31 10:45:25;;;;;;;5.55;1.62;;;;;;;27.05;38.30;99678.88;5016724;57;21155;-75
2021/07/31 10:50:35;;;;;;;1.55;1.45;;;;;;;27.05;38.11;99673.44;5107531;57;21186;-75
2021/07/31 10:55:45;;;;;;;3.52;1.72;;;;;;;27.19;39.30;99672.61;4947561;59;21161;-75
2021/07/31 11:01:12;;;;;;;7.05;1.42;;;;;;;27.08;38.94;99659.39;4950504;58;21173;-75
2021/07/31 11:06:18;;;;;;;11.38;2.02;;;;;;;26.69;38.39;99678.80;4908129;58;21213;-75
2021/07/31 11:11:29;;;;;;;2.77;1.72;;;;;;;26.65;36.60;99683.05;5006158;58;21659;-75
2021/07/31 11:16:35;;;;;;;6.80;1.15;;;;;;;26.86;36.43;99677.45;4944684;59;21183;-74
2021/07/31 11:21:42;;;;;;;8.90;3.75;;;;;;;27.10;36.77;99683.03;4894806;59;21233;-76
2021/07/31 11:26:54;;;;;;;7.05;4.95;;;;;;;27.23;35.70;99665.58;4949121;58;21173;-75
2021/07/31 11:32:13;;;;;;;12.98;7.87;;;;;;;27.10;36.57;99681.68;4914919;59;21210;-75
2021/07/31 11:37:20;;;;;;;4.92;3.10;;;;;;;26.96;36.47;99671.69;4955800;59;21190;-75
2021/07/31 11:42:31;;;;;;;4.30;2.75;;;;;;;26.96;36.59;99681.72;5103536;58;21206;-76
2021/07/31 11:47:33;;;;;;;6.33;5.70;;;;;;;27.06;34.64;99688.66;4949146;59;21715;-77
2021/07/31 11:52:39;;;;;;;9.08;8.18;;;;;;;27.15;34.87;99680.95;4978916;58;22092;-75
2021/07/31 11:57:45;;;;;;;13.18;8.20;;;;;;;27.33;34.87;99688.02;4977520;58;21188;-76
2021/07/31 12:02:51;;;;;;;10.35;5.08;;;;;;;27.44;33.87;99693.34;5112453;57;21211;-76
2021/07/31 12:07:57;;;;;;;3.70;3.10;;;;;;;27.64;33.44;99696.92;5110057;57;21615;-77
2021/07/31 12:13:10;;;;;;;6.47;1.70;;;;;;;27.77;33.71;99694.38;5025967;57;21177;-76
2021/07/31 12:18:16;;;;;;;3.00;1.85;;;;;;;27.88;32.31;99703.77;5010938;59;21200;-75
2021/07/31 12:23:27;;;;;;;6.62;1.30;;;;;;;27.91;32.58;99689.69;5024972;59;21173;-76
2021/07/31 12:28:48;;;;;;;10.43;1.40;;;;;;;27.89;33.14;99695.08;5033614;59;21196;-77
2021/07/31 12:33:56;;;;;;;4.92;1.37;;;;;;;27.52;33.28;99704.30;5030254;59;21173;-76
2021/07/31 12:39:02;;;;;;;11.78;1.20;;;;;;;27.49;34.28;99705.66;5026514;58;21227;-75
2021/07/31 12:44:08;;;;;;;8.63;1.40;;;;;;;27.47;33.07;99708.33;5009562;59;21214;-75
2021/07/31 12:49:13;;;;;;;2.02;0.85;;;;;;;27.43;33.68;99703.92;5015737;59;21185;-74
2021/07/31 12:54:19;;;;;;;2.30;1.42;;;;;;;27.66;31.61;99695.58;5013897;59;22008;-74
2021/07/31 12:59:24;;;;;;;3.15;1.17;;;;;;;27.74;32.18;99706.57;5021059;59;21114;-77
2021/07/31 13:04:31;;;;;;;2.80;1.07;;;;;;;27.47;32.39;99701.00;5018740;59;21192;-75
2021/07/31 13:09:37;;;;;;;3.83;1.98;;;;;;;27.18;32.96;99699.46;5094086;57;21162;-76
2021/07/31 13:14:43;;;;;;;2.75;1.32;;;;;;;27.41;32.39;99697.91;5107787;58;21509;-76
2021/07/31 13:19:49;;;;;;;1.27;1.12;;;;;;;27.62;33.21;99705.86;5091550;57;21162;-76
2021/07/31 13:24:58;;;;;;;4.37;1.10;;;;;;;27.52;33.33;99692.08;5120124;57;21537;-75
2021/07/31 13:30:07;;;;;;;7.97;1.05;;;;;;;27.73;32.99;99695.41;5117885;57;21174;-74
2021/07/31 13:35:13;;;;;;;4.15;1.20;;;;;;;27.75;31.43;99701.95;5120787;57;21154;-75
2021/07/31 13:40:21;;;;;;;7.53;1.45;;;;;;;27.79;31.78;99689.52;5110368;57;21147;-75
2021/07/31 13:45:26;;;;;;;2.22;0.93;;;;;;;27.80;32.02;99684.38;5113627;57;21625;-75
2021/07/31 13:50:32;;;;;;;1.17;0.90;;;;;;;27.71;31.30;99694.02;5109295;57;21103;-75
2021/07/31 13:55:38;;;;;;;2.58;0.98;;;;;;;27.68;31.77;99687.18;5136254;57;21123;-75
2021/07/31 14:00:46;;;;;;;5.83;1.20;;;;;;;27.68;32.21;99680.39;5033007;58;21175;-76
2021/07/31 14:05:52;;;;;;;2.77;1.42;;;;;;;27.52;31.90;99686.11;5112388;57;21190;-76
2021/07/31 14:10:57;;;;;;;3.77;1.37;;;;;;;27.33;32.27;99685.30;5100530;57;22093;-75
2021/07/31 14:16:04;;;;;;;1.17;1.10;;;;;;;27.09;32.96;99680.56;5099338;58;21153;-76
2021/07/31 14:21:11;;;;;;;1.80;1.55;;;;;;;27.06;33.32;99676.45;5056492;58;21167;-74
2021/07/31 14:26:16;;;;;;;2.20;1.00;;;;;;;27.01;33.36;99694.03;5076836;57;21140;-75
2021/07/31 14:31:22;;;;;;;4.62;1.25;;;;;;;27.11;33.15;99693.36;5084393;57;21150;-78
2021/07/31 14:36:28;;;;;;;1.12;0.82;;;;;;;27.33;33.53;99686.13;5088885;57;21166;-76
2021/07/31 14:41:34;;;;;;;2.33;0.95;;;;;;;27.29;32.17;99676.82;5040532;57;21119;-75
2021/07/31 14:46:41;;;;;;;4.12;1.00;;;;;;;27.11;32.78;99676.54;5005195;57;21248;-77
2021/07/31 14:51:47;;;;;;;1.30;0.90;;;;;;;27.17;31.94;99672.02;5078258;58;21572;-76
2021/07/31 14:56:52;;;;;;;1.55;0.80;;;;;;;27.11;32.93;99671.11;5044964;58;21492;-77
2021/07/31 15:01:58;;;;;;;8.30;1.30;;;;;;;26.91;32.62;99670.20;5104030;57;21211;-76
2021/07/31 15:07:04;;;;;;;5.30;1.35;;;;;;;26.86;32.61;99663.89;4968057;59;21187;-77
2021/07/31 15:12:10;;;;;;;3.42;1.30;;;;;;;26.86;32.90;99657.11;5116202;57;21177;-75
2021/07/31 15:17:19;;;;;;;6.08;0.65;;;;;;;26.82;33.44;99658.66;5101236;57;21219;-76
2021/07/31 15:22:23;;;;;;;3.47;1.00;;;;;;;26.90;32.89;99663.13;5113085;57;21615;-77
2021/07/31 15:27:28;;;;;;;9.33;1.10;;;;;;;27.07;33.04;99662.34;4932455;59;21170;-77
2021/07/31 15:32:34;;;;;;;4.30;1.45;;;;;;;27.16;32.54;99669.02;5070171;58;21215;-76
2021/07/31 15:37:40;;;;;;;4.08;1.15;;;;;;;26.98;32.66;99664.66;5067080;57;21283;-75
2021/07/31 15:42:46;;;;;;;5.42;1.05;;;;;;;26.68;32.66;99673.08;5063603;58;21677;-75
2021/07/31 15:47:52;;;;;;;13.10;1.55;;;;;;;26.55;33.19;99672.86;5065813;57;21222;-77
2021/07/31 15:52:58;;;;;;;2.87;1.40;;;;;;;26.57;33.02;99674.80;5074231;58;22087;-77
2021/07/31 15:58:03;;;;;;;10.18;1.40;;;;;;;26.74;33.32;99664.47;5072448;57;21188;-75
2021/07/31 16:03:11;;;;;;;6.67;1.80;;;;;;;26.59;32.95;99671.28;5069236;57;21104;-75
2021/07/31 16:08:16;;;;;;;3.42;1.70;;;;;;;26.45;33.81;99669.94;5078995;56;21120;-77
2021/07/31 16:13:23;;;;;;;2.37;0.93;;;;;;;26.40;34.16;99662.27;5051317;57;22061;-77
2021/07/31 16:18:30;;;;;;;4.65;1.12;;;;;;;26.35;33.89;99668.94;5109774;57;21166;-77
2021/07/31 16:23:36;;;;;;;5.58;1.25;;;;;;;26.39;33.52;99656.55;5108007;58;21211;-77
2021/07/31 16:28:42;;;;;;;3.52;1.45;;;;;;;26.61;33.28;99654.77;5092769;57;21572;-76
2021/07/31 16:33:47;;;;;;;9.75;1.17;;;;;;;26.75;32.78;99657.98;5116618;57;21522;-74
2021/07/31 16:38:53;;;;;;;5.75;1.10;;;;;;;26.76;33.72;99656.38;5110134;57;22199;-77
2021/07/31 16:43:59;;;;;;;5.72;0.80;;;;;;;26.69;32.56;99663.88;5136759;57;21193;-76
2021/07/31 16:49:10;;;;;;;2.70;1.05;;;;;;;26.60;32.94;99670.75;5143172;57;21148;-77
2021/07/31 16:54:16;;;;;;;1.75;0.60;;;;;;;26.70;33.25;99660.63;5140968;57;21199;-77
2021/07/31 16:59:21;;;;;;;5.62;1.57;;;;;;;26.65;32.25;99678.98;5137852;57;21161;-77
2021/07/31 17:04:27;;;;;;;14.98;1.60;;;;;;;26.48;32.91;99674.06;5140363;57;21158;-77
2021/07/31 17:09:33;;;;;;;0.82;0.62;;;;;;;26.38;33.01;99680.13;5134962;57;22217;-76
2021/07/31 17:14:38;;;;;;;0.53;0.53;;;;;;;26.27;32.70;99679.62;5083876;57;21176;-75
2021/07/31 17:19:44;;;;;;;6.53;0.60;;;;;;;26.14;33.18;99684.77;5093883;57;21548;-75
2021/07/31 17:24:50;;;;;;;5.65;1.02;;;;;;;25.95;33.08;99682.48;5105409;58;21175;-75
2021/07/31 17:29:56;;;;;;;1.77;0.65;;;;;;;25.89;33.73;99693.73;5101699;57;21199;-75
2021/07/31 17:35:02;;;;;;;3.58;0.60;;;;;;;25.78;33.79;99692.70;5099644;57;21176;-77
2021/07/31 17:40:11;;;;;;;1.45;0.88;;;;;;;25.62;33.49;99701.55;5084668;57;21169;-77
2021/07/31 17:45:17;;;;;;;2.33;0.78;;;;;;;25.47;34.19;99698.47;5083161;57;21675;-77
2021/07/31 17:50:23;;;;;;;6.33;1.32;;;;;;;25.34;34.31;99705.48;5080273;57;21261;-75
2021/07/31 17:55:28;;;;;;;2.30;1.45;;;;;;;25.13;34.40;99705.51;5106803;57;22126;-77
2021/07/31 18:00:35;;;;;;;1.55;1.02;;;;;;;25.03;34.89;99709.33;5088262;57;21189;-75
2021/07/31 18:05:40;;;;;;;5.80;0.95;;;;;;;24.87;35.09;99717.02;5080211;57;21107;-76
2021/07/31 18:10:46;;;;;;;1.52;1.30;;;;;;;24.82;35.19;99721.47;5083573;57;21198;-75
2021/07/31 18:15:52;;;;;;;8.80;1.57;;;;;;;24.72;35.51;99724.74;5103284;57;21161;-74
2021/07/31 18:20:58;;;;;;;3.27;1.30;;;;;;;24.65;35.76;99735.34;5072950;57;21180;-77
2021/07/31 18:26:03;;;;;;;3.27;1.05;;;;;;;24.56;35.69;99740.78;5121574;57;21153;-74
2021/07/31 18:31:11;;;;;;;8.28;2.47;;;;;;;24.48;35.73;99748.67;5110257;57;21215;-75
2021/07/31 18:36:16;;;;;;;1.52;1.00;;;;;;;24.41;36.13;99744.72;5094093;56;21186;-77
2021/07/31 18:41:22;;;;;;;1.45;1.20;;;;;;;24.31;36.17;99771.95;5101722;58;21532;-76
2021/07/31 18:46:28;;;;;;;8.38;1.70;;;;;;;24.23;36.48;99774.95;4934272;59;21213;-77
2021/07/31 18:51:34;;;;;;;10.35;2.27;;;;;;;24.15;37.24;99786.34;5076091;58;21175;-75
2021/07/31 18:56:39;;;;;;;2.22;1.15;;;;;;;24.03;37.50;99790.02;5073482;57;21175;-76
2021/07/31 19:01:45;;;;;;;1.80;1.22;;;;;;;23.89;37.60;99794.73;5067877;56;22058;-77
2021/07/31 19:06:51;;;;;;;3.08;0.88;;;;;;;23.74;37.81;99791.04;5063715;57;21208;-76
2021/07/31 19:11:57;;;;;;;6.62;1.20;;;;;;;23.58;38.20;99795.66;5040413;56;21161;-77
2021/07/31 19:17:03;;;;;;;5.70;1.57;;;;;;;23.40;38.44;99803.13;5107047;57;21648;-75
2021/07/31 19:22:11;;;;;;;8.88;1.27;;;;;;;23.30;38.74;99804.67;5114452;57;21560;-76
2021/07/31 19:27:17;;;;;;;6.00;1.50;;;;;;;23.22;38.82;99808.45;5116503;57;21171;-75
2021/07/31 19:32:22;;;;;;;10.45;1.98;;;;;;;23.14;38.80;99800.63;5099052;57;21124;-76
2021/07/31 19:37:28;;;;;;;4.37;1.10;;;;;;;23.08;38.93;99802.84;5069273;57;21126;-76
2021/07/31 19:42:34;;;;;;;1.65;0.80;;;;;;;23.01;39.05;99803.42;5083579;57;21503;-74
2021/07/31 19:47:40;;;;;;;5.42;1.12;;;;;;;22.93;39.09;99810.41;5028395;57;21155;-75
2021/07/31 19:52:47;;;;;;;10.78;1.22;;;;;;;22.84;39.26;99817.94;5033732;57;21176;-74
2021/07/31 19:57:52;;;;;;;4.45;0.68;;;;;;;22.78;39.39;99825.00;5121601;57;21198;-76
2021/07/31 20:02:58;;;;;;;1.98;0.90;;;;;;;22.71;39.56;99832.80;5109735;57;21728;-75
2021/07/31 20:08:04;;;;;;;6.00;1.22;;;;;;;22.59;39.83;99843.95;5103017;58;21170;-76
2021/07/31 20:13:12;;;;;;;3.22;0.93;;;;;;;22.50;39.93;99851.95;4859897;59;21186;-75
2021/07/31 20:18:18;;;;;;;0.85;0.80;;;;;;;22.41;40.05;99846.80;5056813;57;21110;-75
2021/07/31 20:23:24;;;;;;;8.85;0.75;;;;;;;22.36;40.23;99853.34;5003619;57;21190;-75
2021/07/31 20:28:30;;;;;;;5.22;1.15;;;;;;;22.28;40.32;99858.97;4990053;58;21191;-75
2021/07/31 20:33:35;;;;;;;5.28;1.20;;;;;;;22.19;40.51;99847.27;4981331;57;22162;-75
2021/07/31 20:38:41;;;;;;;9.43;1.92;;;;;;;21.99;40.87;99836.03;5020052;58;21190;-74
2021/07/31 20:43:47;;;;;;;5.87;1.20;;;;;;;21.94;41.30;99838.48;4976391;58;21198;-74
2021/07/31 20:48:53;;;;;;;8.73;1.10;;;;;;;21.90;41.39;99842.63;4999515;58;21170;-75
2021/07/31 20:53:59;;;;;;;8.63;1.20;;;;;;;21.87;41.45;99844.38;4992804;58;21172;-76
2021/07/31 20:59:05;;;;;;;7.72;1.15;;;;;;;21.90;41.48;99857.42;5010381;57;21234;-76
2021/07/31 21:04:11;;;;;;;10.25;1.00;;;;;;;21.91;41.49;99856.91;4985193;58;21178;-76
2021/07/31 21:09:17;;;;;;;7.85;2.25;;;;;;;21.89;41.58;99857.63;5001618;58;21208;-74
2021/07/31 21:14:23;;;;;;;8.25;2.55;;;;;;;21.83;41.70;99853.10;4936076;57;21632;-75
2021/07/31 21:19:28;;;;;;;24.70;4.28;;;;;;;21.84;42.08;99856.11;5037454;57;21165;-76
2021/07/31 21:24:34;;;;;;;17.37;4.95;;;;;;;21.94;42.36;99861.38;4999464;58;21169;-74
2021/07/31 21:29:40;;;;;;;7.87;2.55;;;;;;;22.01;42.68;99866.77;5023894;57;21123;-75
2021/07/31 21:34:45;;;;;;;15.25;3.22;;;;;;;21.99;43.02;99858.92;4946149;58;21179;-76
2021/07/31 21:39:51;;;;;;;5.62;2.45;;;;;;;22.00;43.26;99859.72;4937900;58;22158;-75
2021/07/31 21:44:58;;;;;;;7.25;3.00;;;;;;;21.98;43.52;99853.71;4999690;58;21250;-75
2021/07/31 21:50:05;;;;;;;86.57;32.20;;;;;;;21.96;43.67;99859.81;5108017;57;21236;-74
2021/07/31 21:55:11;;;;;;;38.40;16.42;;;;;;;21.84;43.82;99854.24;5105905;58;21571;-75
2021/07/31 22:00:34;;;;;;;13.85;5.83;;;;;;;21.71;44.21;99864.98;5095777;57;21206;-76
2021/07/31 22:05:47;;;;;;;18.92;5.90;;;;;;;21.51;44.34;99874.42;5112770;56;21631;-75
2021/07/31 22:10:54;;;;;;;3.25;2.83;;;;;;;21.23;44.66;99875.93;5019329;57;21549;-74
2021/07/31 22:15:59;;;;;;;18.27;2.10;;;;;;;21.01;45.13;99875.72;4973659;57;21178;-75
2021/07/31 22:21:05;;;;;;;10.70;2.17;;;;;;;20.94;45.46;99877.02;5066325;57;21175;-75
2021/07/31 22:26:10;;;;;;;6.30;1.40;;;;;;;20.96;45.75;99876.83;5120727;57;21211;-75
2021/07/31 22:31:17;;;;;;;7.12;1.55;;;;;;;20.96;45.83;99879.52;5106162;57;21215;-75
2021/07/31 22:36:23;;;;;;;4.25;1.62;;;;;;;20.85;45.63;99898.41;5072503;57;21166;-75
2021/07/31 22:41:29;;;;;;;4.55;1.62;;;;;;;20.62;45.74;99905.96;5112488;57;21159;-76
2021/07/31 22:46:34;;;;;;;10.10;1.90;;;;;;;20.41;46.04;99912.75;5142003;57;21099;-76
2021/07/31 22:51:40;;;;;;;4.42;1.40;;;;;;;20.24;46.37;99902.80;5136246;57;21185;-75
2021/07/31 22:56:45;;;;;;;3.72;1.90;;;;;;;20.08;46.80;99908.45;5140379;57;21170;-75
2021/07/31 23:01:52;;;;;;;6.15;1.30;;;;;;;19.92;47.12;99909.58;5134145;57;21158;-76
2021/07/31 23:06:59;;;;;;;6.50;1.55;;;;;;;19.81;47.38;99914.97;5137193;57;22108;-75
2021/07/31 23:12:06;;;;;;;4.87;1.30;;;;;;;19.69;47.68;99905.78;5108806;57;21815;-76
2021/07/31 23:17:12;;;;;;;3.05;1.60;;;;;;;19.60;48.12;99902.38;5107108;57;21145;-75
2021/07/31 23:22:18;;;;;;;3.98;1.70;;;;;;;19.49;48.27;99911.43;5144204;57;22147;-76
2021/07/31 23:27:23;;;;;;;3.20;1.80;;;;;;;19.39;48.63;99911.76;5123140;56;21165;-76
2021/07/31 23:32:29;;;;;;;6.20;1.70;;;;;;;19.34;49.15;99907.46;5108406;56;21151;-76
2021/07/31 23:37:35;;;;;;;5.25;1.60;;;;;;;19.30;49.88;99911.03;5101973;58;21546;-75
2021/07/31 23:42:40;;;;;;;4.08;1.30;;;;;;;19.25;49.90;99903.22;5108468;56;21140;-75
2021/07/31 23:47:47;;;;;;;6.47;1.90;;;;;;;19.21;50.19;99903.30;5113498;57;21175;-75
2021/07/31 23:52:52;;;;;;;4.70;1.85;;;;;;;19.18;50.31;99899.14;5105278;57;21258;-75
2021/07/31 23:57:58;;;;;;;3.45;1.62;;;;;;;19.17;50.33;99903.36;5111771;56;21163;-76
